Terminal Aerodrome Forecast
Issued by NWS Atlanta, GA

Home | Current Version | Previous Version | Text Only | Print | Product List | Glossary On
Versions: 1 2 3 4 5 6 7 8 9 10 11 12 13 14 15 16
000
FTUS42 KFFC 232324
TAFMCN
TAF
KMCN 232324Z 2400/2424 08006KT P6SM SCT050
     FM240100 00000KT P6SM SCT250
      TEMPO 2409/2412 5SM BR
     FM241600 07010KT P6SM SCT040=

USA.gov is the U.S. government's official web portal to all federal, state and local government web resources and services.